Time;durP1;ratioP1;P1;durP2;ratioP2;P2;SDS_P1;SDS_P2;PMS_P1;PMS_P2;Temp;Humidity;BMP_temperature;BMP_pressure;BME280_temperature;BME280_humidity;BME280_pressure;Samples;Min_cycle;Max_cycle;Signal;HPM_P1;HPM_P2
2022/04/05 00:00:50;;;;;;;13.20;8.23;;;10.50;99.90;;;;;;5030869;28;20040;-68
2022/04/05 00:03:16;;;;;;;9.23;7.57;;;10.50;99.90;;;;;;5027941;28;20032;-68
2022/04/05 00:05:41;;;;;;;11.80;8.00;;;10.50;99.90;;;;;;5037266;28;20078;-68
2022/04/05 00:08:07;;;;;;;8.45;7.53;;;10.50;99.90;;;;;;5040094;28;20017;-68
2022/04/05 00:10:33;;;;;;;9.50;8.60;;;10.50;99.90;;;;;;5037621;28;20385;-68
2022/04/05 00:12:58;;;;;;;10.27;9.13;;;10.60;99.90;;;;;;5040442;28;20020;-68
2022/04/05 00:15:24;;;;;;;13.65;9.65;;;10.50;99.90;;;;;;5040106;28;20028;-68
2022/04/05 00:17:50;;;;;;;12.98;10.23;;;10.50;99.90;;;;;;5036026;28;20128;-68
2022/04/05 00:20:15;;;;;;;14.95;11.02;;;10.60;99.90;;;;;;5041190;28;20108;-68
2022/04/05 00:22:41;;;;;;;11.90;10.57;;;10.60;99.90;;;;;;5037205;28;20033;-68
2022/04/05 00:25:07;;;;;;;10.95;9.38;;;10.50;99.90;;;;;;5036886;28;20084;-68
2022/04/05 00:27:32;;;;;;;14.05;10.00;;;10.50;99.90;;;;;;5038985;28;20021;-68
2022/04/05 00:29:59;;;;;;;13.65;10.52;;;10.60;99.90;;;;;;5038116;28;20021;-68
2022/04/05 00:32:26;;;;;;;12.13;9.73;;;10.50;99.90;;;;;;5037196;28;20505;-68
2022/04/05 00:34:51;;;;;;;16.77;9.35;;;10.50;99.90;;;;;;5039512;28;20032;-68
2022/04/05 00:37:17;;;;;;;16.48;10.20;;;10.50;99.90;;;;;;5034585;28;20029;-69
2022/04/05 00:39:42;;;;;;;12.60;10.30;;;10.50;99.90;;;;;;5042380;28;20112;-68
2022/04/05 00:42:10;;;;;;;13.52;10.70;;;10.50;99.90;;;;;;5038217;28;20036;-68
2022/04/05 00:44:36;;;;;;;14.60;10.82;;;10.50;99.90;;;;;;5030248;28;20026;-68
2022/04/05 00:47:19;;;;;;;11.43;10.25;;;10.50;99.90;;;;;;5029736;28;20025;-67
2022/04/05 00:49:45;;;;;;;13.25;10.75;;;10.50;99.90;;;;;;5042114;28;20017;-68
2022/04/05 00:52:15;;;;;;;15.77;11.65;;;10.50;99.90;;;;;;5035350;28;20026;-69
2022/04/05 00:54:43;;;;;;;17.85;12.38;;;10.50;99.90;;;;;;5045403;28;20024;-68
2022/04/05 00:57:11;;;;;;;15.65;11.40;;;10.50;99.90;;;;;;5043569;28;20075;-68
2022/04/05 00:59:42;;;;;;;13.13;11.43;;;10.50;99.90;;;;;;5036751;28;20029;-68
2022/04/05 01:02:13;;;;;;;14.25;11.80;;;10.50;99.90;;;;;;5030773;28;20049;-68
2022/04/05 01:04:43;;;;;;;18.67;12.02;;;10.50;99.90;;;;;;5035748;28;20032;-68
2022/04/05 01:07:11;;;;;;;15.88;11.65;;;10.40;99.90;;;;;;5033237;28;20049;-68
2022/04/05 01:09:38;;;;;;;13.07;11.40;;;10.40;99.90;;;;;;5041898;28;20547;-68
2022/04/05 01:12:08;;;;;;;15.07;12.45;;;10.50;99.90;;;;;;5041791;28;20392;-68
2022/04/05 01:14:34;;;;;;;17.05;13.07;;;10.50;99.90;;;;;;5038912;28;20021;-68
2022/04/05 01:17:00;;;;;;;17.35;13.05;;;10.40;99.90;;;;;;5033165;28;20033;-68
2022/04/05 01:19:27;;;;;;;15.63;12.13;;;10.50;99.90;;;;;;5033428;28;20465;-68
2022/04/05 01:21:52;;;;;;;13.38;10.63;;;10.50;99.90;;;;;;5033453;28;20029;-68
2022/04/05 01:24:18;;;;;;;7.05;4.93;;;10.40;99.90;;;;;;5033209;28;20052;-68
2022/04/05 01:26:45;;;;;;;3.38;3.08;;;10.30;99.90;;;;;;5037547;28;20131;-68
2022/04/05 01:29:12;;;;;;;3.30;2.95;;;10.30;99.90;;;;;;5031763;28;20029;-69
2022/04/05 01:31:44;;;;;;;3.13;2.50;;;10.20;99.90;;;;;;5033385;28;20064;-68
2022/04/05 01:34:11;;;;;;;3.22;1.98;;;10.10;99.90;;;;;;5034181;28;20026;-68
2022/04/05 01:36:45;;;;;;;2.63;1.83;;;10.10;99.90;;;;;;5031751;28;20017;-68
2022/04/05 01:39:12;;;;;;;3.15;2.20;;;10.10;99.90;;;;;;5034575;28;20025;-68
2022/04/05 01:41:38;;;;;;;3.25;1.83;;;10.00;99.90;;;;;;5034162;28;20148;-68
2022/04/05 01:44:05;;;;;;;2.55;1.48;;;10.00;99.90;;;;;;5043599;28;20060;-68
2022/04/05 01:46:32;;;;;;;2.17;1.38;;;10.00;99.90;;;;;;5033126;28;20052;-69
2022/04/05 01:48:57;;;;;;;2.60;1.92;;;10.00;99.90;;;;;;5040471;28;20536;-68
2022/04/05 01:51:23;;;;;;;2.10;1.40;;;10.00;99.90;;;;;;5036389;28;20031;-68
2022/04/05 01:53:48;;;;;;;2.65;1.25;;;9.90;99.90;;;;;;5037856;28;20034;-68
2022/04/05 01:56:14;;;;;;;2.00;1.30;;;10.00;99.90;;;;;;5029981;28;20025;-69
2022/04/05 01:58:40;;;;;;;4.55;1.23;;;9.90;99.90;;;;;;5036790;28;20083;-68
2022/04/05 02:01:05;;;;;;;1.70;1.10;;;10.00;99.90;;;;;;5035445;28;20027;-69
2022/04/05 02:03:31;;;;;;;1.83;1.27;;;10.00;99.90;;;;;;5035361;28;20385;-69
2022/04/05 02:05:57;;;;;;;2.33;1.40;;;10.00;99.90;;;;;;5037592;28;20105;-69
2022/04/05 02:08:22;;;;;;;3.88;1.40;;;9.90;99.90;;;;;;5032940;28;20488;-69
2022/04/05 02:10:49;;;;;;;1.90;1.27;;;10.00;99.90;;;;;;5037900;28;20032;-69
2022/04/05 02:13:14;;;;;;;1.42;0.90;;;9.90;99.90;;;;;;5030838;28;20014;-69
2022/04/05 02:15:40;;;;;;;1.27;1.02;;;9.90;99.90;;;;;;5035214;28;21230;-68
2022/04/05 02:18:06;;;;;;;1.13;0.88;;;9.90;99.90;;;;;;5035154;28;20045;-68
2022/04/05 02:20:32;;;;;;;2.45;1.00;;;9.90;99.90;;;;;;5040411;28;20053;-69
2022/04/05 02:22:58;;;;;;;2.83;1.30;;;9.90;99.90;;;;;;5032583;28;20108;-68
2022/04/05 02:25:24;;;;;;;1.60;1.05;;;9.90;99.90;;;;;;5030423;28;20060;-69
2022/04/05 02:27:49;;;;;;;3.85;1.15;;;9.90;99.90;;;;;;5031685;28;20028;-68
2022/04/05 02:30:15;;;;;;;2.47;1.30;;;9.90;99.90;;;;;;5034830;28;20036;-69
2022/04/05 02:32:40;;;;;;;1.40;0.95;;;9.90;99.90;;;;;;5040547;28;20022;-69
2022/04/05 02:35:08;;;;;;;1.55;1.08;;;9.90;99.90;;;;;;5034633;28;20036;-69
2022/04/05 02:37:34;;;;;;;2.50;1.10;;;9.80;99.90;;;;;;5036786;28;20025;-69
2022/04/05 02:39:59;;;;;;;1.45;1.15;;;9.80;99.90;;;;;;5050059;28;20036;-68
2022/04/05 02:42:25;;;;;;;2.05;1.17;;;9.80;99.90;;;;;;5033478;28;20029;-69
2022/04/05 02:44:50;;;;;;;2.20;1.45;;;9.80;99.90;;;;;;5031767;28;20044;-68
2022/04/05 02:47:16;;;;;;;2.28;1.10;;;9.80;99.90;;;;;;5033384;28;20026;-68
2022/04/05 02:49:41;;;;;;;2.40;1.10;;;9.80;99.90;;;;;;5034990;28;20036;-70
2022/04/05 02:52:07;;;;;;;1.92;1.10;;;9.80;99.90;;;;;;5034501;28;20029;-68
2022/04/05 02:54:34;;;;;;;3.88;2.05;;;9.80;99.90;;;;;;5034845;28;20103;-68
2022/04/05 02:56:59;;;;;;;2.58;1.40;;;9.80;99.90;;;;;;5034523;28;20079;-69
2022/04/05 02:59:25;;;;;;;2.78;1.30;;;9.80;99.90;;;;;;5046945;28;20017;-68
2022/04/05 03:01:51;;;;;;;2.65;1.05;;;9.70;99.90;;;;;;5049428;28;20072;-69
2022/04/05 03:04:16;;;;;;;1.45;1.08;;;9.70;99.90;;;;;;5035407;28;20030;-68
2022/04/05 03:06:42;;;;;;;1.50;1.00;;;9.70;99.90;;;;;;5036911;28;20088;-69
2022/04/05 03:09:07;;;;;;;1.60;1.00;;;9.70;99.90;;;;;;5029730;28;20084;-69
2022/04/05 03:11:33;;;;;;;1.17;0.90;;;9.70;99.90;;;;;;5033190;28;20083;-68
2022/04/05 03:13:58;;;;;;;1.20;0.90;;;9.70;99.90;;;;;;5042104;28;20045;-69
2022/04/05 03:16:24;;;;;;;1.10;1.00;;;9.70;99.90;;;;;;5034555;28;20020;-69
2022/04/05 03:18:50;;;;;;;1.85;1.08;;;9.70;99.90;;;;;;5042936;28;20106;-69
2022/04/05 03:21:17;;;;;;;1.50;1.08;;;9.70;99.90;;;;;;5034071;28;20544;-68
2022/04/05 03:23:42;;;;;;;1.33;1.00;;;9.60;99.90;;;;;;5028282;28;20028;-69
2022/04/05 03:26:08;;;;;;;2.17;1.23;;;9.60;99.90;;;;;;5028273;28;20029;-69
2022/04/05 03:28:34;;;;;;;1.45;1.02;;;9.60;99.90;;;;;;5033849;28;20373;-69
2022/04/05 03:30:59;;;;;;;2.90;1.50;;;9.60;99.90;;;;;;5030805;28;20028;-69
2022/04/05 03:33:25;;;;;;;1.55;1.02;;;9.60;99.90;;;;;;5031252;28;20025;-69
2022/04/05 03:35:51;;;;;;;2.22;1.52;;;9.60;99.90;;;;;;5031007;28;20040;-69
2022/04/05 03:38:16;;;;;;;2.03;1.10;;;9.50;99.90;;;;;;5031449;28;20039;-68
2022/04/05 03:40:42;;;;;;;1.95;1.08;;;9.50;99.90;;;;;;5036278;28;20036;-69
2022/04/05 03:43:12;;;;;;;1.88;1.23;;;9.50;99.90;;;;;;5030808;28;20025;-69
2022/04/05 03:45:38;;;;;;;1.58;0.90;;;9.50;99.90;;;;;;5034731;28;20041;-69
2022/04/05 03:48:03;;;;;;;1.60;1.40;;;9.50;99.90;;;;;;5036947;28;20494;-69
2022/04/05 03:50:31;;;;;;;3.97;1.40;;;9.40;99.90;;;;;;5029411;28;20021;-69
2022/04/05 03:52:59;;;;;;;2.50;1.30;;;9.40;99.90;;;;;;5035100;28;20034;-69
2022/04/05 03:55:25;;;;;;;1.58;1.33;;;9.40;99.90;;;;;;5034882;28;20025;-69
2022/04/05 03:57:50;;;;;;;2.47;1.60;;;9.40;99.90;;;;;;5030642;28;20028;-69
2022/04/05 04:00:16;;;;;;;3.17;1.80;;;9.40;99.90;;;;;;5027964;28;20045;-69
2022/04/05 04:02:42;;;;;;;3.63;1.85;;;9.40;99.90;;;;;;5036287;28;20029;-69
2022/04/05 04:05:08;;;;;;;2.92;1.55;;;9.40;99.90;;;;;;5051240;28;20029;-69
2022/04/05 04:07:39;;;;;;;1.55;1.45;;;9.40;99.90;;;;;;5030883;28;20025;-69
2022/04/05 04:10:06;;;;;;;3.25;1.60;;;9.40;99.90;;;;;;5051592;28;20140;-69
2022/04/05 04:12:32;;;;;;;2.75;2.10;;;9.40;99.90;;;;;;5035461;28;20017;-69
2022/04/05 04:14:58;;;;;;;3.30;2.10;;;9.40;99.90;;;;;;5035844;28;20023;-69
2022/04/05 04:17:25;;;;;;;3.03;2.30;;;9.40;99.90;;;;;;5035073;28;20488;-69
2022/04/05 04:19:51;;;;;;;3.38;2.45;;;9.40;99.90;;;;;;5034485;28;20071;-69
2022/04/05 04:22:17;;;;;;;3.63;2.72;;;9.40;99.90;;;;;;5039482;28;20033;-69
2022/04/05 04:24:43;;;;;;;4.00;3.15;;;9.30;99.90;;;;;;5033405;28;20396;-69
2022/04/05 04:27:11;;;;;;;5.75;3.58;;;9.30;99.90;;;;;;5030393;28;20018;-69
2022/04/05 04:29:37;;;;;;;4.30;3.42;;;9.30;99.90;;;;;;5036115;28;20025;-68
2022/04/05 04:32:03;;;;;;;4.82;4.10;;;9.30;99.90;;;;;;5030310;28;20041;-69
2022/04/05 04:34:29;;;;;;;5.70;4.57;;;9.30;99.90;;;;;;5034306;28;20053;-69
2022/04/05 04:36:54;;;;;;;7.18;5.93;;;9.30;99.90;;;;;;5037676;28;20562;-69
2022/04/05 04:39:20;;;;;;;6.75;5.97;;;9.40;99.90;;;;;;5030240;28;20513;-69
2022/04/05 04:41:45;;;;;;;7.78;6.97;;;9.40;99.90;;;;;;5031602;28;20025;-69
2022/04/05 04:44:11;;;;;;;9.50;7.72;;;9.40;99.90;;;;;;5035858;28;20087;-69
2022/04/05 04:46:37;;;;;;;9.13;7.95;;;9.50;99.90;;;;;;5033440;28;20029;-69
2022/04/05 04:49:02;;;;;;;12.70;10.52;;;9.50;99.90;;;;;;5032998;28;20045;-68
2022/04/05 04:51:28;;;;;;;14.30;12.85;;;9.60;99.90;;;;;;5036842;28;20029;-69
2022/04/05 04:53:53;;;;;;;15.85;14.15;;;9.60;99.90;;;;;;5039397;28;20025;-69
2022/04/05 04:56:19;;;;;;;16.05;14.07;;;9.60;99.90;;;;;;5036665;28;20033;-69
2022/04/05 04:58:45;;;;;;;16.17;14.48;;;9.60;99.90;;;;;;5033706;28;20061;-68
2022/04/05 05:01:10;;;;;;;18.45;16.45;;;9.70;99.90;;;;;;5038037;28;20424;-69
2022/04/05 05:03:36;;;;;;;18.77;16.85;;;9.70;99.90;;;;;;5034692;28;20021;-69
2022/04/05 05:06:03;;;;;;;21.67;18.35;;;9.70;99.90;;;;;;5037570;28;21502;-68
2022/04/05 05:08:28;;;;;;;19.90;17.17;;;9.70;99.90;;;;;;5031101;28;20039;-68
2022/04/05 05:10:54;;;;;;;18.88;16.85;;;9.70;99.90;;;;;;5031313;28;20385;-69
2022/04/05 05:13:20;;;;;;;20.35;17.02;;;9.80;99.90;;;;;;5032084;28;20037;-69
2022/04/05 05:15:46;;;;;;;19.67;16.73;;;9.80;99.90;;;;;;5041881;28;20096;-69
2022/04/05 05:18:12;;;;;;;21.05;18.23;;;9.80;99.90;;;;;;5041942;28;20385;-69
2022/04/05 05:20:38;;;;;;;21.23;17.35;;;9.80;99.90;;;;;;5035182;28;20127;-68
2022/04/05 05:23:04;;;;;;;19.25;17.13;;;9.80;99.90;;;;;;5035237;28;20029;-69
2022/04/05 05:25:29;;;;;;;19.13;17.02;;;9.80;99.90;;;;;;5032169;28;20025;-69
2022/04/05 05:27:55;;;;;;;19.23;16.70;;;9.80;99.90;;;;;;5043377;28;20519;-69
2022/04/05 05:30:22;;;;;;;19.50;17.40;;;9.90;99.90;;;;;;5042922;28;20025;-69
2022/04/05 05:32:49;;;;;;;21.40;19.05;;;9.90;99.90;;;;;;5036136;28;20481;-68
2022/04/05 05:35:16;;;;;;;20.02;17.85;;;9.90;99.90;;;;;;5043512;28;20498;-69
2022/04/05 05:37:42;;;;;;;21.70;19.40;;;9.90;99.90;;;;;;5053833;28;20092;-69
2022/04/05 05:40:09;;;;;;;23.52;21.10;;;9.90;99.90;;;;;;5052824;28;20029;-69
2022/04/05 05:42:49;;;;;;;28.45;22.85;;;10.00;99.90;;;;;;5054285;28;20083;-69
2022/04/05 05:45:15;;;;;;;22.65;20.23;;;10.00;99.90;;;;;;5053869;28;20074;-68
2022/04/05 05:47:40;;;;;;;28.95;22.02;;;10.00;99.90;;;;;;5036604;28;20029;-69
2022/04/05 05:50:06;;;;;;;26.13;20.83;;;10.00;99.90;;;;;;5053962;28;20028;-69
2022/04/05 05:52:32;;;;;;;24.55;21.98;;;10.00;99.90;;;;;;5054115;28;20036;-69
2022/04/05 05:54:57;;;;;;;24.65;20.48;;;10.10;99.90;;;;;;5053789;28;20033;-69
2022/04/05 05:57:23;;;;;;;23.10;20.73;;;10.10;99.90;;;;;;5052902;28;20039;-69
2022/04/05 05:59:48;;;;;;;24.88;20.48;;;10.10;99.90;;;;;;5053895;28;20108;-69
2022/04/05 06:02:14;;;;;;;26.25;20.13;;;10.10;99.90;;;;;;5051796;28;20496;-68
2022/04/05 06:04:39;;;;;;;25.75;19.52;;;10.10;99.90;;;;;;5050998;28;20484;-68
2022/04/05 06:07:05;;;;;;;22.48;19.52;;;10.10;99.90;;;;;;5050974;28;20493;-69
2022/04/05 06:09:30;;;;;;;21.35;18.73;;;10.20;99.90;;;;;;5034061;28;20432;-69
2022/04/05 06:11:56;;;;;;;19.65;17.55;;;10.20;99.90;;;;;;5033416;28;20508;-69
2022/04/05 06:14:21;;;;;;;20.73;17.25;;;10.20;99.90;;;;;;5033117;28;20033;-69
2022/04/05 06:16:47;;;;;;;21.75;17.33;;;10.20;99.90;;;;;;5033738;28;20481;-69
2022/04/05 06:19:12;;;;;;;21.58;17.38;;;10.20;99.90;;;;;;5033297;28;20216;-69
2022/04/05 06:21:38;;;;;;;19.52;17.45;;;10.30;99.90;;;;;;5033475;28;20037;-69
2022/04/05 06:24:04;;;;;;;19.02;15.98;;;10.30;99.90;;;;;;5033080;28;20064;-69
2022/04/05 06:26:30;;;;;;;17.88;15.75;;;10.30;99.90;;;;;;5043239;28;20053;-69
2022/04/05 06:28:56;;;;;;;29.20;15.77;;;10.30;99.90;;;;;;5052050;28;20036;-69
2022/04/05 06:31:22;;;;;;;18.38;15.98;;;10.30;99.90;;;;;;5053048;28;20143;-69
2022/04/05 06:33:48;;;;;;;18.63;15.60;;;10.40;99.90;;;;;;5053123;28;20025;-69
2022/04/05 06:36:13;;;;;;;18.35;15.18;;;10.40;99.90;;;;;;5053118;28;20488;-69
2022/04/05 06:38:39;;;;;;;21.38;16.10;;;10.40;99.90;;;;;;5052803;28;20033;-68
2022/04/05 06:41:04;;;;;;;19.38;16.67;;;10.40;99.90;;;;;;5047484;28;20033;-69
2022/04/05 06:43:30;;;;;;;18.55;15.90;;;10.40;99.90;;;;;;5046986;28;20538;-69
2022/04/05 06:45:56;;;;;;;16.58;14.85;;;10.40;99.90;;;;;;5050646;28;20045;-69
2022/04/05 06:48:21;;;;;;;17.08;15.38;;;10.40;99.90;;;;;;5051739;28;20024;-69
2022/04/05 06:50:48;;;;;;;18.45;15.80;;;10.40;99.90;;;;;;5052860;28;20040;-69
2022/04/05 06:53:14;;;;;;;18.30;14.93;;;10.40;99.90;;;;;;5052890;28;20013;-69
2022/04/05 06:55:40;;;;;;;16.30;14.60;;;10.50;99.90;;;;;;5052749;28;20377;-69
2022/04/05 06:58:05;;;;;;;15.77;13.80;;;10.50;99.90;;;;;;5051453;28;20476;-69
2022/04/05 07:00:33;;;;;;;17.10;14.40;;;10.50;99.90;;;;;;5052777;28;20598;-69
2022/04/05 07:02:58;;;;;;;16.75;13.68;;;10.50;99.90;;;;;;5051250;28;20096;-69
2022/04/05 07:05:24;;;;;;;18.48;13.10;;;10.50;99.90;;;;;;5052574;28;20024;-69
2022/04/05 07:07:50;;;;;;;16.60;12.82;;;10.50;99.90;;;;;;5047402;28;20018;-69
2022/04/05 07:10:18;;;;;;;16.30;11.88;;;10.60;99.90;;;;;;5031380;28;20037;-69
2022/04/05 07:12:45;;;;;;;15.80;11.93;;;10.60;99.90;;;;;;5039664;28;20021;-69
2022/04/05 07:15:11;;;;;;;14.55;11.73;;;10.60;99.90;;;;;;5050538;28;20453;-69
2022/04/05 07:17:37;;;;;;;14.32;10.55;;;10.60;99.90;;;;;;5047872;28;20106;-69
2022/04/05 07:20:07;;;;;;;13.48;10.75;;;10.60;99.90;;;;;;5050495;28;20045;-69
2022/04/05 07:22:32;;;;;;;14.27;10.82;;;10.70;99.90;;;;;;5049437;28;20381;-69
2022/04/05 07:24:58;;;;;;;13.10;10.27;;;10.70;99.90;;;;;;5052111;28;20036;-69
2022/04/05 07:27:23;;;;;;;13.80;10.00;;;10.70;99.90;;;;;;5048938;28;20028;-69
2022/04/05 07:29:49;;;;;;;11.27;9.20;;;10.70;99.90;;;;;;5045298;28;20478;-69
2022/04/05 07:32:14;;;;;;;11.27;8.75;;;10.70;99.90;;;;;;5040867;28;20021;-69
2022/04/05 07:34:40;;;;;;;12.20;10.15;;;10.80;99.90;;;;;;5049322;28;20048;-69
2022/04/05 07:37:05;;;;;;;11.85;9.23;;;10.80;99.90;;;;;;5044719;28;20048;-69
2022/04/05 07:39:31;;;;;;;10.25;8.60;;;10.80;99.90;;;;;;5050433;28;20087;-69
2022/04/05 07:41:57;;;;;;;10.90;8.95;;;10.80;99.90;;;;;;5044855;28;20476;-68
2022/04/05 07:44:23;;;;;;;11.00;8.57;;;10.80;99.90;;;;;;5050286;28;20025;-69
2022/04/05 07:46:49;;;;;;;11.85;8.32;;;10.80;99.90;;;;;;5050091;28;20453;-69
2022/04/05 07:49:14;;;;;;;10.77;7.68;;;10.90;99.90;;;;;;5050269;28;20486;-69
2022/04/05 07:51:40;;;;;;;10.82;7.25;;;10.90;99.90;;;;;;5047625;28;20477;-68
2022/04/05 07:54:05;;;;;;;10.75;7.97;;;11.00;99.90;;;;;;5050249;28;20021;-69
2022/04/05 07:56:31;;;;;;;9.50;7.78;;;11.00;99.90;;;;;;5047568;28;20500;-69
2022/04/05 07:58:57;;;;;;;12.38;8.25;;;11.00;99.90;;;;;;5050326;28;20021;-69
2022/04/05 08:01:24;;;;;;;10.27;8.18;;;11.10;99.90;;;;;;5049964;28;20043;-69
2022/04/05 08:03:50;;;;;;;8.55;7.15;;;11.10;99.90;;;;;;5051196;28;20028;-69
2022/04/05 08:06:16;;;;;;;15.23;8.48;;;11.10;99.90;;;;;;5052506;28;20104;-69
2022/04/05 08:08:41;;;;;;;10.43;7.38;;;11.10;99.90;;;;;;5071579;28;20104;-69
2022/04/05 08:11:07;;;;;;;10.50;7.07;;;11.10;99.90;;;;;;5034210;28;20052;-68
2022/04/05 08:13:32;;;;;;;10.15;7.78;;;11.10;99.90;;;;;;5031710;28;20370;-69
2022/04/05 08:15:58;;;;;;;9.10;7.05;;;11.10;99.90;;;;;;5031449;28;20478;-69
2022/04/05 08:18:23;;;;;;;14.95;8.43;;;11.10;99.90;;;;;;5029869;28;20030;-69
2022/04/05 08:20:49;;;;;;;9.43;6.75;;;11.20;99.90;;;;;;5031564;28;20068;-69
2022/04/05 08:23:14;;;;;;;9.13;6.60;;;11.30;99.90;;;;;;5043454;28;20028;-69
2022/04/05 08:25:40;;;;;;;10.52;6.80;;;11.30;99.90;;;;;;5046835;28;20412;-69
2022/04/05 08:28:06;;;;;;;8.63;6.35;;;11.40;99.90;;;;;;5052557;28;20094;-69
2022/04/05 08:30:32;;;;;;;8.35;6.30;;;11.40;99.90;;;;;;5052002;28;20036;-69
2022/04/05 08:32:58;;;;;;;10.27;7.00;;;11.50;99.90;;;;;;5052140;28;20021;-69
2022/04/05 08:35:24;;;;;;;9.20;6.90;;;11.50;99.90;;;;;;5050736;28;20032;-68
2022/04/05 08:37:52;;;;;;;7.80;7.00;;;11.60;99.90;;;;;;5053993;28;20146;-69
2022/04/05 08:40:19;;;;;;;10.27;7.85;;;11.60;99.90;;;;;;5053589;28;20032;-69
2022/04/05 08:42:51;;;;;;;11.23;7.72;;;11.60;99.90;;;;;;5051525;28;20396;-68
2022/04/05 08:45:18;;;;;;;14.10;7.65;;;11.50;99.90;;;;;;5053771;28;20059;-68
2022/04/05 08:47:47;;;;;;;10.07;6.82;;;11.50;99.90;;;;;;5052101;28;20028;-68
2022/04/05 08:50:21;;;;;;;9.38;6.53;;;11.50;99.90;;;;;;5053907;28;20595;-68
2022/04/05 08:52:48;;;;;;;10.65;7.30;;;11.50;99.90;;;;;;5053901;28;20028;-68
2022/04/05 08:55:15;;;;;;;7.78;6.68;;;11.50;99.90;;;;;;5054939;28;20029;-68
2022/04/05 08:57:40;;;;;;;11.95;7.22;;;11.50;99.90;;;;;;5054757;28;20029;-68
2022/04/05 09:00:09;;;;;;;8.48;6.38;;;11.50;99.90;;;;;;5054965;28;20442;-68
2022/04/05 09:02:35;;;;;;;8.65;6.40;;;11.50;99.90;;;;;;5054340;28;20025;-68
2022/04/05 09:05:01;;;;;;;10.82;7.00;;;11.50;99.90;;;;;;5054412;28;20033;-68
2022/04/05 09:07:35;;;;;;;8.05;6.45;;;11.50;99.90;;;;;;5054903;28;20045;-69
2022/04/05 09:10:09;;;;;;;10.13;7.22;;;11.50;99.90;;;;;;5054516;28;20021;-69
2022/04/05 09:12:39;;;;;;;10.40;6.43;;;11.60;99.90;;;;;;5054574;28;20433;-69
2022/04/05 09:15:10;;;;;;;10.32;6.88;;;11.60;99.90;;;;;;5054701;28;20102;-69
2022/04/05 09:17:40;;;;;;;10.65;7.32;;;11.70;99.90;;;;;;5054345;28;20048;-69
2022/04/05 09:20:06;;;;;;;9.65;7.03;;;11.70;99.90;;;;;;5053727;28;20053;-68
2022/04/05 09:22:35;;;;;;;7.05;6.35;;;11.70;99.90;;;;;;5054395;28;20029;-68
2022/04/05 09:25:06;;;;;;;8.70;6.47;;;11.60;99.90;;;;;;5054362;28;20079;-68
2022/04/05 09:27:54;;;;;;;8.45;7.22;;;11.60;99.90;;;;;;5054788;28;20036;-68
2022/04/05 09:30:27;;;;;;;10.20;7.95;;;11.50;99.90;;;;;;5053108;28;20021;-68
2022/04/05 09:32:54;;;;;;;7.80;6.97;;;11.50;99.90;;;;;;5054394;28;20032;-68
2022/04/05 09:35:21;;;;;;;6.90;5.85;;;11.50;99.90;;;;;;5053956;28;20599;-68
2022/04/05 09:37:48;;;;;;;8.63;6.47;;;11.50;99.90;;;;;;5053686;28;20056;-70
2022/04/05 09:40:19;;;;;;;6.70;5.97;;;11.50;99.90;;;;;;5054142;28;20051;-68
2022/04/05 09:42:58;;;;;;;8.15;7.35;;;11.50;99.90;;;;;;5054017;28;20033;-68
2022/04/05 09:45:44;;;;;;;9.98;8.23;;;11.50;99.90;;;;;;5053854;28;20115;-69
2022/04/05 09:48:10;;;;;;;9.00;8.00;;;11.50;99.90;;;;;;5054160;28;20477;-68
2022/04/05 09:51:01;;;;;;;10.30;8.35;;;11.50;99.90;;;;;;5053772;28;20032;-68
2022/04/05 09:53:38;;;;;;;12.70;9.05;;;11.50;99.90;;;;;;5053427;28;20032;-69
2022/04/05 09:56:05;;;;;;;11.73;9.38;;;11.60;99.90;;;;;;5053777;28;20029;-69
2022/04/05 09:58:31;;;;;;;10.82;8.43;;;11.70;99.90;;;;;;5049173;28;20037;-69
2022/04/05 10:01:08;;;;;;;10.45;9.45;;;11.80;99.90;;;;;;5049255;28;20056;-69
2022/04/05 10:03:39;;;;;;;9.75;8.70;;;11.90;99.90;;;;;;5052854;28;20025;-68
2022/04/05 10:06:05;;;;;;;8.65;7.85;;;11.80;99.90;;;;;;5051992;28;20033;-69
2022/04/05 10:08:32;;;;;;;9.93;8.38;;;11.80;99.90;;;;;;5052034;28;20088;-69
2022/04/05 10:10:59;;;;;;;10.43;7.95;;;11.80;99.90;;;;;;5047964;28;20079;-68
2022/04/05 10:13:24;;;;;;;9.25;7.68;;;11.80;99.90;;;;;;5049143;28;20033;-68
2022/04/05 10:15:51;;;;;;;8.45;7.53;;;11.80;99.90;;;;;;5049107;28;20079;-69
2022/04/05 10:18:20;;;;;;;8.43;7.30;;;11.80;99.90;;;;;;5052155;28;20025;-69
2022/04/05 10:20:48;;;;;;;8.68;7.88;;;11.70;99.90;;;;;;5047450;28;20106;-69
2022/04/05 10:23:18;;;;;;;8.95;7.55;;;11.70;99.90;;;;;;5051226;28;20936;-69
2022/04/05 10:25:46;;;;;;;9.48;7.57;;;11.80;99.90;;;;;;5046676;28;20094;-68
2022/04/05 10:28:15;;;;;;;9.02;7.20;;;11.80;99.90;;;;;;5046780;28;20104;-69
2022/04/05 10:30:44;;;;;;;9.25;8.02;;;11.80;99.90;;;;;;5043290;28;20087;-69
2022/04/05 10:33:23;;;;;;;7.95;7.15;;;11.90;99.90;;;;;;5045027;28;20029;-69
2022/04/05 10:35:53;;;;;;;7.50;6.70;;;12.00;99.90;;;;;;5044672;28;20036;-69
2022/04/05 10:38:20;;;;;;;7.45;6.72;;;12.00;99.90;;;;;;5040841;28;20033;-69
2022/04/05 10:41:18;;;;;;;11.40;7.55;;;12.10;99.90;;;;;;5039717;28;20033;-69
2022/04/05 10:43:46;;;;;;;8.18;7.38;;;12.10;99.90;;;;;;5044488;28;20072;-69
2022/04/05 10:46:11;;;;;;;9.57;8.63;;;12.10;99.90;;;;;;5047493;28;20032;-69
2022/04/05 10:48:52;;;;;;;9.45;8.30;;;12.10;99.90;;;;;;5049095;28;20024;-69
2022/04/05 10:51:30;;;;;;;8.82;8.00;;;12.10;99.90;;;;;;5052725;28;20094;-69
2022/04/05 10:54:18;;;;;;;9.43;8.05;;;12.00;99.90;;;;;;5051704;28;20035;-69
2022/04/05 10:57:15;;;;;;;10.02;7.53;;;12.00;99.90;;;;;;5052601;28;20029;-69
2022/04/05 10:59:49;;;;;;;9.43;7.95;;;12.10;99.90;;;;;;5051743;28;20495;-69
2022/04/05 11:02:29;;;;;;;10.07;8.77;;;11.90;99.90;;;;;;5048430;28;20025;-69
2022/04/05 11:05:12;;;;;;;10.00;8.93;;;12.00;99.90;;;;;;5044780;28;20017;-69
2022/04/05 11:07:52;;;;;;;10.00;8.90;;;11.90;99.90;;;;;;5049857;28;20025;-68
2022/04/05 11:10:37;;;;;;;9.57;8.70;;;11.90;99.90;;;;;;5049911;28;20025;-69
2022/04/05 11:13:09;;;;;;;9.77;8.65;;;11.90;99.90;;;;;;5044844;28;20103;-69
2022/04/05 11:15:52;;;;;;;8.90;8.07;;;11.90;99.90;;;;;;5044681;28;20061;-69
2022/04/05 11:18:29;;;;;;;8.88;8.02;;;11.90;99.90;;;;;;5026849;28;20498;-69
2022/04/05 11:21:00;;;;;;;11.75;8.85;;;11.90;99.90;;;;;;5050438;28;20516;-69
2022/04/05 11:23:50;;;;;;;9.23;7.97;;;12.00;99.90;;;;;;5045043;28;20504;-69
2022/04/05 11:26:33;;;;;;;11.20;8.60;;;12.00;99.90;;;;;;5045899;28;20417;-69
2022/04/05 11:28:59;;;;;;;9.63;7.22;;;12.00;99.90;;;;;;5049052;28;20017;-69
2022/04/05 11:31:35;;;;;;;9.02;7.28;;;12.10;99.90;;;;;;5046777;28;20032;-69
2022/04/05 11:34:21;;;;;;;9.40;7.95;;;12.20;99.90;;;;;;5050833;28;20021;-69
2022/04/05 11:36:47;;;;;;;8.68;7.53;;;12.20;99.90;;;;;;5050438;28;20420;-69
2022/04/05 11:39:13;;;;;;;9.18;7.78;;;12.30;99.90;;;;;;5052139;28;20032;-69
2022/04/05 11:41:39;;;;;;;11.10;8.15;;;12.40;99.90;;;;;;5049308;28;20044;-69
2022/04/05 11:44:07;;;;;;;10.00;8.07;;;12.50;99.90;;;;;;5040830;28;20017;-69
2022/04/05 11:46:36;;;;;;;9.45;7.95;;;12.60;99.90;;;;;;5045892;28;20020;-69
2022/04/05 11:49:11;;;;;;;10.13;7.38;;;12.80;99.90;;;;;;5049913;28;20024;-69
2022/04/05 11:51:43;;;;;;;8.10;7.07;;;12.90;99.90;;;;;;5046233;28;20035;-69
2022/04/05 11:54:13;;;;;;;9.00;8.10;;;12.90;99.90;;;;;;5047353;28;20067;-69
2022/04/05 11:56:41;;;;;;;8.23;6.65;;;12.90;99.90;;;;;;5049685;28;20074;-69
2022/04/05 11:59:08;;;;;;;8.77;7.10;;;12.80;99.90;;;;;;5047255;28;20023;-69
2022/04/05 12:01:37;;;;;;;8.45;7.65;;;12.80;99.90;;;;;;5045142;28;20385;-69
2022/04/05 12:04:07;;;;;;;8.48;7.65;;;12.70;99.90;;;;;;5049777;28;20355;-70
2022/04/05 12:06:37;;;;;;;8.40;7.53;;;12.80;99.90;;;;;;5045592;28;20029;-69
2022/04/05 12:09:05;;;;;;;8.55;7.40;;;12.90;99.90;;;;;;5048412;28;20052;-68
2022/04/05 12:11:32;;;;;;;9.05;7.25;;;13.00;99.90;;;;;;5049944;28;20031;-69
2022/04/05 12:13:59;;;;;;;10.85;8.02;;;13.10;99.90;;;;;;5049957;28;20183;-69
2022/04/05 12:16:27;;;;;;;8.95;7.38;;;13.20;99.90;;;;;;5049577;28;20453;-69
2022/04/05 12:18:53;;;;;;;8.07;7.25;;;13.30;99.90;;;;;;5047238;28;20021;-69
2022/04/05 12:21:21;;;;;;;9.23;8.30;;;13.20;99.90;;;;;;5049557;28;20041;-69
2022/04/05 12:23:48;;;;;;;9.70;8.77;;;13.30;99.90;;;;;;5048284;28;20026;-69
2022/04/05 12:26:20;;;;;;;9.23;8.32;;;13.20;99.90;;;;;;5046131;28;20025;-69
2022/04/05 12:28:51;;;;;;;9.13;8.23;;;13.30;99.90;;;;;;5050075;28;20025;-69
2022/04/05 12:31:30;;;;;;;8.00;7.18;;;13.40;99.90;;;;;;5049846;28;20048;-69
2022/04/05 12:34:05;;;;;;;7.65;6.90;;;13.40;99.90;;;;;;5047987;28;20053;-69
2022/04/05 12:36:36;;;;;;;9.27;7.72;;;13.40;99.90;;;;;;5060525;28;20032;-69
2022/04/05 12:39:28;;;;;;;7.28;6.65;;;13.50;99.90;;;;;;5048792;28;20104;-69
2022/04/05 12:42:03;;;;;;;7.75;6.93;;;13.70;99.90;;;;;;5045668;28;20029;-69
2022/04/05 12:44:37;;;;;;;7.47;6.78;;;13.90;99.90;;;;;;5044067;28;20369;-69
2022/04/05 12:47:09;;;;;;;6.82;6.22;;;14.00;99.90;;;;;;5050338;28;20035;-69